createdAt,value
2017-09-10T00:00:34.434Z,14.26
2017-09-10T00:01:34.417Z,14.17
2017-09-10T00:02:34.426Z,14.23
2017-09-10T00:03:34.439Z,14.18
2017-09-10T00:04:34.775Z,14.23
2017-09-10T00:05:34.505Z,14.2
2017-09-10T00:06:34.760Z,14.3
2017-09-10T00:07:34.427Z,14.17
2017-09-10T00:08:34.425Z,14.26
2017-09-10T00:09:34.096Z,14.26
2017-09-10T00:10:34.421Z,14.23
2017-09-10T00:11:34.812Z,14.25
2017-09-10T00:12:34.481Z,14.18
2017-09-10T00:13:34.730Z,14.29
2017-09-10T00:14:34.730Z,14.23
2017-09-10T00:15:34.716Z,14.35
2017-09-10T00:16:34.825Z,14.37
2017-09-10T00:17:34.394Z,14.37
2017-09-10T00:18:34.411Z,14.47
2017-09-10T00:19:34.394Z,14.43
2017-09-10T00:20:34.417Z,14.45
2017-09-10T00:21:34.730Z,14.43
2017-09-10T00:22:34.730Z,14.44
2017-09-10T00:23:34.399Z,14.35
2017-09-10T00:24:34.418Z,14.35
2017-09-10T00:25:34.418Z,14.4
2017-09-10T00:26:34.403Z,14.36
2017-09-10T00:27:34.420Z,14.43
2017-09-10T00:28:34.422Z,14.37
2017-09-10T00:29:34.735Z,14.37
2017-09-10T00:30:34.404Z,14.3
2017-09-10T00:31:34.079Z,14.29
2017-09-10T00:32:34.717Z,14.26
2017-09-10T00:33:34.720Z,14.25
2017-09-10T00:34:34.394Z,14.23
2017-09-10T00:35:34.725Z,14.18
2017-09-10T00:36:34.111Z,14.22
2017-09-10T00:37:34.696Z,14.2
2017-09-10T00:38:34.403Z,14.22
2017-09-10T00:39:34.722Z,14.17
2017-09-10T00:40:34.698Z,14.23
2017-09-10T00:41:34.768Z,14.15
2017-09-10T00:42:34.065Z,14.29
2017-09-10T00:43:34.738Z,14.32
2017-09-10T00:44:34.700Z,14.25
2017-09-10T00:45:34.724Z,14.4
2017-09-10T00:46:34.708Z,14.4
2017-09-10T00:47:34.691Z,14.41
2017-09-10T00:48:34.371Z,14.41
2017-09-10T00:49:34.681Z,14.29
2017-09-10T00:50:34.710Z,14.35
2017-09-10T00:51:34.374Z,14.43
2017-09-10T00:52:34.372Z,14.35
2017-09-10T00:53:34.367Z,14.35
2017-09-10T00:54:34.364Z,14.37
2017-09-10T00:55:34.701Z,14.28
2017-09-10T00:56:34.381Z,14.23
2017-09-10T00:57:34.697Z,14.15
2017-09-10T00:58:34.049Z,14.2
2017-09-10T00:59:34.689Z,14.14
2017-09-10T01:00:34.701Z,14.14
2017-09-10T01:01:34.702Z,14.17
2017-09-10T01:02:34.354Z,14.1
2017-09-10T01:03:34.360Z,14.05
2017-09-10T01:04:34.355Z,14.08
2017-09-10T01:05:34.668Z,14.1
2017-09-10T01:06:34.127Z,14.11
2017-09-10T01:07:34.389Z,14.14
2017-09-10T01:08:34.376Z,14.11
2017-09-10T01:09:34.358Z,14.14
2017-09-10T01:10:34.695Z,14.1
2017-09-10T01:11:34.376Z,14.05
2017-09-10T01:12:34.673Z,13.97
2017-09-10T01:13:34.360Z,14.05
2017-09-10T01:14:34.033Z,14.08
2017-09-10T01:15:34.447Z,13.99
2017-09-10T01:16:34.391Z,14
2017-09-10T01:17:34.338Z,14.04
2017-09-10T01:18:34.045Z,14.1
2017-09-10T01:19:34.369Z,14.05
2017-09-10T01:20:34.388Z,14.11
2017-09-10T01:21:34.336Z,14.12
2017-09-10T01:22:34.648Z,14.07
2017-09-10T01:23:34.669Z,14.15
2017-09-10T01:24:34.770Z,14.23
2017-09-10T01:25:34.721Z,14.15
2017-09-10T01:26:34.383Z,14.15
2017-09-10T01:27:34.727Z,14.2
2017-09-10T01:28:34.351Z,14.17
2017-09-10T01:29:34.377Z,14.2
2017-09-10T01:30:34.328Z,14.17
2017-09-10T01:31:34.328Z,14.18
2017-09-10T01:32:34.671Z,14.18
2017-09-10T01:33:34.685Z,14.15
2017-09-10T01:34:34.028Z,14.18
2017-09-10T01:35:34.680Z,14.23
2017-09-10T01:36:34.775Z,14.17
2017-09-10T01:37:34.644Z,14.22
2017-09-10T01:38:34.644Z,14.26
2017-09-10T01:39:34.651Z,14.17
2017-09-10T01:40:34.641Z,14.12
2017-09-10T01:41:34.337Z,14.11
2017-09-10T01:42:34.005Z,14.2
2017-09-10T01:43:34.337Z,14.05
2017-09-10T01:44:34.311Z,14.15
2017-09-10T01:45:34.325Z,14.14
2017-09-10T01:46:34.338Z,14.23
2017-09-10T01:47:34.328Z,14.18
2017-09-10T01:48:34.651Z,14.28
2017-09-10T01:49:34.311Z,14.32
2017-09-10T01:50:34.302Z,14.28
2017-09-10T01:51:34.309Z,14.33
2017-09-10T01:52:34.002Z,14.36
2017-09-10T01:53:34.623Z,14.36
2017-09-10T01:54:34.303Z,14.36
2017-09-10T01:55:34.304Z,14.35
2017-09-10T01:56:34.313Z,14.37
2017-09-10T01:57:34.305Z,14.3
2017-09-10T01:58:34.629Z,14.4
2017-09-10T01:59:34.675Z,14.37
2017-09-10T02:00:34.305Z,14.3
2017-09-10T02:01:34.750Z,14.29
2017-09-10T02:02:33.987Z,14.26
2017-09-10T02:03:34.295Z,14.29
2017-09-10T02:04:34.293Z,14.35
2017-09-10T02:05:34.307Z,14.35
2017-09-10T02:06:33.989Z,14.3
2017-09-10T02:07:34.616Z,14.26
2017-09-10T02:08:34.612Z,14.2
2017-09-10T02:09:34.630Z,14.18
2017-09-10T02:10:34.320Z,14.15
2017-09-10T02:11:34.632Z,14.23
2017-09-10T02:12:34.642Z,14.22
2017-09-10T02:13:34.347Z,14.17
2017-09-10T02:14:34.636Z,14.18
2017-09-10T02:15:34.863Z,14.22
2017-09-10T02:16:34.287Z,14.17
2017-09-10T02:17:34.284Z,14.14
2017-09-10T02:18:34.609Z,14.14
2017-09-10T02:19:34.602Z,14.08
2017-09-10T02:20:34.617Z,14.12
2017-09-10T02:21:34.306Z,14.15
2017-09-10T02:22:34.603Z,14.1
2017-09-10T02:23:34.286Z,14.08
2017-09-10T02:24:34.287Z,14.18
2017-09-10T02:25:34.648Z,14.12
2017-09-10T02:26:33.970Z,14.05
2017-09-10T02:27:34.602Z,13.97
2017-09-10T02:28:34.604Z,13.99
2017-09-10T02:29:33.968Z,13.95
2017-09-10T02:30:34.597Z,14.11
2017-09-10T02:31:34.325Z,14.07
2017-09-10T02:32:34.582Z,14.12
2017-09-10T02:33:34.296Z,14.23
2017-09-10T02:34:34.614Z,14.14
2017-09-10T02:35:34.269Z,14.18
2017-09-10T02:36:34.729Z,14.35
2017-09-10T02:37:34.266Z,14.28
2017-09-10T02:38:34.606Z,14.22
2017-09-10T02:39:34.275Z,14.18
2017-09-10T02:40:34.273Z,14.14
2017-09-10T02:41:34.669Z,14.23
2017-09-10T02:42:34.272Z,14.18
2017-09-10T02:43:34.270Z,14.23
2017-09-10T02:44:34.261Z,14.15
2017-09-10T02:45:34.583Z,14.17
2017-09-10T02:46:34.270Z,14.18
2017-09-10T02:47:33.958Z,14.18
2017-09-10T02:48:34.586Z,14.08
2017-09-10T02:49:34.586Z,14.12
2017-09-10T02:50:33.963Z,14.1
2017-09-10T02:51:34.568Z,14.15
2017-09-10T02:52:34.566Z,14.17
2017-09-10T02:53:34.571Z,14.22
2017-09-10T02:54:34.267Z,14.23
2017-09-10T02:55:34.258Z,14.22
2017-09-10T02:56:34.258Z,14.26
2017-09-10T02:57:34.591Z,14.2
2017-09-10T02:58:34.578Z,14.28
2017-09-10T02:59:33.943Z,14.22
2017-09-10T03:00:34.246Z,14.28
2017-09-10T03:01:34.621Z,14.2
2017-09-10T03:02:34.254Z,14.18
2017-09-10T03:03:34.558Z,14.15
2017-09-10T03:04:34.255Z,14.12
2017-09-10T03:05:34.585Z,14.22
2017-09-10T03:06:33.933Z,14.22
2017-09-10T03:07:34.557Z,14.23
2017-09-10T03:08:34.559Z,14.29
2017-09-10T03:09:34.559Z,14.22
2017-09-10T03:10:34.558Z,14.32
2017-09-10T03:11:34.015Z,14.25
2017-09-10T03:12:34.572Z,14.3
2017-09-10T03:13:34.562Z,14.26
2017-09-10T03:14:34.296Z,14.23
2017-09-10T03:15:34.560Z,14.35
2017-09-10T03:16:34.577Z,14.37
2017-09-10T03:17:34.563Z,14.37
2017-09-10T03:18:34.562Z,14.43
2017-09-10T03:19:34.544Z,14.44
2017-09-10T03:20:34.579Z,14.47
2017-09-10T03:21:34.238Z,14.4
2017-09-10T03:22:34.229Z,14.47
2017-09-10T03:23:34.230Z,14.41
2017-09-10T03:24:34.230Z,14.41
2017-09-10T03:25:34.591Z,14.33
2017-09-10T03:26:34.535Z,14.35
2017-09-10T03:27:34.582Z,14.41
2017-09-10T03:28:33.929Z,14.41
2017-09-10T03:29:33.928Z,14.36
2017-09-10T03:30:34.602Z,14.33
2017-09-10T03:31:33.916Z,14.35
2017-09-10T03:32:34.533Z,14.44
2017-09-10T03:33:34.227Z,14.36
2017-09-10T03:34:34.538Z,14.36
2017-09-10T03:35:34.535Z,14.35
2017-09-10T03:36:33.913Z,14.37
2017-09-10T03:37:34.552Z,14.33
2017-09-10T03:38:34.530Z,14.36
2017-09-10T03:39:34.529Z,14.36
2017-09-10T03:40:34.530Z,14.33
2017-09-10T03:41:34.530Z,14.33
2017-09-10T03:42:34.528Z,14.36
2017-09-10T03:43:33.910Z,14.4
2017-09-10T03:44:34.527Z,14.41
2017-09-10T03:45:34.532Z,14.32
2017-09-10T03:46:34.263Z,14.37
2017-09-10T03:47:34.526Z,14.4
2017-09-10T03:48:34.220Z,14.44
2017-09-10T03:49:34.533Z,14.43
2017-09-10T03:50:34.217Z,14.47
2017-09-10T03:51:34.212Z,14.44
2017-09-10T03:52:34.527Z,14.43
2017-09-10T03:53:34.519Z,14.41
2017-09-10T03:54:34.522Z,14.44
2017-09-10T03:55:34.221Z,14.45
2017-09-10T03:56:34.523Z,14.41
2017-09-10T03:57:34.211Z,14.43
2017-09-10T03:58:34.215Z,14.53
2017-09-10T03:59:34.526Z,14.54
2017-09-10T04:00:34.213Z,14.55
2017-09-10T04:01:34.522Z,14.41
2017-09-10T04:02:34.526Z,14.6
2017-09-10T04:03:34.206Z,14.5
2017-09-10T04:04:34.512Z,14.58
2017-09-10T04:05:34.212Z,14.53
2017-09-10T04:06:34.208Z,14.55
2017-09-10T04:07:34.208Z,14.51
2017-09-10T04:08:34.529Z,14.48
2017-09-10T04:09:34.527Z,14.5
2017-09-10T04:10:34.514Z,14.41
2017-09-10T04:11:34.514Z,14.4
2017-09-10T04:12:34.208Z,14.41
2017-09-10T04:13:34.512Z,14.37
2017-09-10T04:14:34.204Z,14.47
2017-09-10T04:15:34.518Z,14.48
2017-09-10T04:16:34.198Z,14.43
2017-09-10T04:17:34.200Z,14.36
2017-09-10T04:18:34.510Z,14.43
2017-09-10T04:19:34.203Z,14.37
2017-09-10T04:20:34.210Z,14.36
2017-09-10T04:21:33.910Z,14.36
2017-09-10T04:22:34.194Z,14.36
2017-09-10T04:23:34.197Z,14.33
2017-09-10T04:24:34.498Z,14.36
2017-09-10T04:25:34.507Z,14.35
2017-09-10T04:26:34.195Z,14.33
2017-09-10T04:27:33.882Z,14.3
2017-09-10T04:28:34.500Z,14.3
2017-09-10T04:29:34.190Z,14.3
2017-09-10T04:30:34.513Z,14.4
2017-09-10T04:31:34.186Z,14.23
2017-09-10T04:32:34.189Z,14.23
2017-09-10T04:33:34.500Z,14.28
2017-09-10T04:34:33.882Z,14.32
2017-09-10T04:35:34.494Z,14.37
2017-09-10T04:36:34.225Z,14.2
2017-09-10T04:37:34.184Z,14.3
2017-09-10T04:38:34.193Z,14.3
2017-09-10T04:39:34.184Z,14.29
2017-09-10T04:40:34.179Z,14.25
2017-09-10T04:41:34.183Z,14.35
2017-09-10T04:42:34.180Z,14.35
2017-09-10T04:43:34.498Z,14.35
2017-09-10T04:44:34.494Z,14.35
2017-09-10T04:45:34.187Z,14.35
2017-09-10T04:46:34.491Z,14.36
2017-09-10T04:47:34.488Z,14.35
2017-09-10T04:48:34.179Z,14.32
2017-09-10T04:49:34.487Z,14.26
2017-09-10T04:50:34.482Z,14.37
2017-09-10T04:51:34.486Z,14.25
2017-09-10T04:52:34.489Z,14.32
2017-09-10T04:53:34.180Z,14.2
2017-09-10T04:54:34.175Z,14.35
2017-09-10T04:55:34.175Z,14.36
2017-09-10T04:56:34.214Z,14.4
2017-09-10T04:57:34.482Z,14.36
2017-09-10T04:58:34.175Z,14.35
2017-09-10T04:59:34.172Z,14.28
2017-09-10T05:00:34.478Z,14.33
2017-09-10T05:01:33.866Z,14.33
2017-09-10T05:02:34.479Z,14.43
2017-09-10T05:03:34.515Z,14.33
2017-09-10T05:04:34.488Z,14.3
2017-09-10T05:05:33.871Z,14.36
2017-09-10T05:06:34.166Z,14.36
2017-09-10T05:07:34.167Z,14.4
2017-09-10T05:08:34.480Z,14.2
2017-09-10T05:09:34.170Z,14.3
2017-09-10T05:10:34.585Z,14.22
2017-09-10T05:11:34.190Z,14.35
2017-09-10T05:12:34.163Z,14.33
2017-09-10T05:13:34.162Z,14.22
2017-09-10T05:14:34.162Z,14.25
2017-09-10T05:15:34.474Z,14.22
2017-09-10T05:16:34.162Z,14.26
2017-09-10T05:17:34.163Z,14.23
2017-09-10T05:18:34.476Z,14.26
2017-09-10T05:19:33.851Z,14.33
2017-09-10T05:20:34.476Z,14.26
2017-09-10T05:21:34.162Z,14.22
2017-09-10T05:22:34.157Z,14.22
2017-09-10T05:23:34.478Z,14.37
2017-09-10T05:24:34.164Z,14.37
2017-09-10T05:25:34.159Z,14.37
2017-09-10T05:26:34.160Z,14.36
2017-09-10T05:27:34.157Z,14.36
2017-09-10T05:28:33.850Z,14.35
2017-09-10T05:29:34.461Z,14.35
2017-09-10T05:30:34.482Z,14.35
2017-09-10T05:31:34.464Z,14.32
2017-09-10T05:32:34.156Z,14.3
2017-09-10T05:33:34.154Z,14.25
2017-09-10T05:34:34.154Z,14.36
2017-09-10T05:35:34.473Z,14.35
2017-09-10T05:36:34.161Z,14.37
2017-09-10T05:37:34.154Z,14.36
2017-09-10T05:38:34.471Z,14.37
2017-09-10T05:39:34.151Z,14.47
2017-09-10T05:40:34.153Z,14.45
2017-09-10T05:41:33.844Z,14.43
2017-09-10T05:42:34.456Z,14.44
2017-09-10T05:43:34.154Z,14.53
2017-09-10T05:44:34.459Z,14.48
2017-09-10T05:45:33.847Z,14.51
2017-09-10T05:46:34.463Z,14.58
2017-09-10T05:47:34.457Z,14.6
2017-09-10T05:48:34.461Z,14.58
2017-09-10T05:49:34.491Z,14.6
2017-09-10T05:50:34.156Z,14.66
2017-09-10T05:51:34.460Z,14.63
2017-09-10T05:52:34.453Z,14.66
2017-09-10T05:53:34.457Z,14.66
2017-09-10T05:54:34.153Z,14.69
2017-09-10T05:55:34.460Z,14.63
2017-09-10T05:56:34.463Z,14.53
2017-09-10T05:57:34.500Z,14.63
2017-09-10T05:58:34.474Z,14.53
2017-09-10T05:59:34.157Z,14.55
2017-09-10T06:00:34.460Z,14.53
2017-09-10T06:01:34.155Z,14.58
2017-09-10T06:02:34.465Z,14.58
2017-09-10T06:03:34.451Z,14.51
2017-09-10T06:04:34.457Z,14.53
2017-09-10T06:05:34.459Z,14.54
2017-09-10T06:06:34.456Z,14.53
2017-09-10T06:07:34.460Z,14.55
2017-09-10T06:08:33.841Z,14.51
2017-09-10T06:09:34.156Z,14.41
2017-09-10T06:10:34.503Z,14.53
2017-09-10T06:11:34.141Z,14.58
2017-09-10T06:12:34.139Z,14.62
2017-09-10T06:13:34.141Z,14.66
2017-09-10T06:14:34.150Z,14.55
2017-09-10T06:15:34.138Z,14.58
2017-09-10T06:16:34.476Z,14.55
2017-09-10T06:17:34.143Z,14.62
2017-09-10T06:18:34.137Z,14.59
2017-09-10T06:19:34.446Z,14.62
2017-09-10T06:20:34.143Z,14.66
2017-09-10T06:21:34.137Z,14.7
2017-09-10T06:22:34.144Z,14.62
2017-09-10T06:23:34.132Z,14.65
2017-09-10T06:24:34.447Z,14.78
2017-09-10T06:25:34.130Z,14.77
2017-09-10T06:26:34.452Z,14.7
2017-09-10T06:27:34.453Z,14.85
2017-09-10T06:28:34.439Z,14.82
2017-09-10T06:29:34.441Z,14.86
2017-09-10T06:30:33.828Z,14.99
2017-09-10T06:31:34.129Z,14.96
2017-09-10T06:32:34.438Z,15.02
2017-09-10T06:33:34.132Z,15.06
2017-09-10T06:34:34.133Z,15.19
2017-09-10T06:35:34.129Z,15.19
2017-09-10T06:36:34.128Z,15.31
2017-09-10T06:37:33.823Z,15.31
2017-09-10T06:38:34.129Z,15.4
2017-09-10T06:39:34.128Z,15.33
2017-09-10T06:40:34.439Z,15.29
2017-09-10T06:41:33.823Z,15.37
2017-09-10T06:42:34.448Z,15.36
2017-09-10T06:43:34.127Z,15.37
2017-09-10T06:44:34.450Z,15.37
2017-09-10T06:45:34.131Z,15.33
2017-09-10T06:46:34.456Z,15.35
2017-09-10T06:47:34.447Z,15.37
2017-09-10T06:48:34.464Z,15.31
2017-09-10T06:49:34.136Z,15.29
2017-09-10T06:50:34.448Z,15.27
2017-09-10T06:51:34.162Z,15.28
2017-09-10T06:52:34.131Z,15.35
2017-09-10T06:53:34.130Z,15.33
2017-09-10T06:54:34.135Z,15.37
2017-09-10T06:55:34.461Z,15.46
2017-09-10T06:56:34.136Z,15.44
2017-09-10T06:57:34.135Z,15.55
2017-09-10T06:58:34.440Z,15.62
2017-09-10T06:59:34.449Z,15.68
2017-09-10T07:00:34.441Z,15.7
2017-09-10T07:01:34.154Z,15.68
2017-09-10T07:02:34.136Z,15.64
2017-09-10T07:03:34.135Z,15.67
2017-09-10T07:04:34.452Z,15.59
2017-09-10T07:05:34.462Z,15.73
2017-09-10T07:06:34.441Z,15.68
2017-09-10T07:07:34.445Z,15.77
2017-09-10T07:08:34.137Z,15.86
2017-09-10T07:09:34.138Z,15.82
2017-09-10T07:10:34.138Z,15.86
2017-09-10T07:11:34.144Z,15.83
2017-09-10T07:12:34.450Z,15.83
2017-09-10T07:13:34.199Z,15.84
2017-09-10T07:14:34.462Z,15.84
2017-09-10T07:15:34.446Z,15.94
2017-09-10T07:16:34.461Z,15.98
2017-09-10T07:17:34.461Z,15.95
2017-09-10T07:18:34.450Z,16
2017-09-10T07:19:34.138Z,16.08
2017-09-10T07:20:33.844Z,16.02
2017-09-10T07:21:34.462Z,16.05
2017-09-10T07:22:34.452Z,16.04
2017-09-10T07:23:34.463Z,16.05
2017-09-10T07:24:34.148Z,16.04
2017-09-10T07:25:34.146Z,16.08
2017-09-10T07:26:34.558Z,16.13
2017-09-10T07:27:34.458Z,16.17
2017-09-10T07:28:34.466Z,16.21
2017-09-10T07:29:34.468Z,16.28
2017-09-10T07:30:34.469Z,16.35
2017-09-10T07:31:34.458Z,16.33
2017-09-10T07:32:34.153Z,16.39
2017-09-10T07:33:34.151Z,16.42
2017-09-10T07:34:34.155Z,16.29
2017-09-10T07:35:34.472Z,16.28
2017-09-10T07:36:34.155Z,16.23
2017-09-10T07:37:34.479Z,16.32
2017-09-10T07:38:33.848Z,16.35
2017-09-10T07:39:34.161Z,16.41
2017-09-10T07:40:34.477Z,16.38
2017-09-10T07:41:34.519Z,16.53
2017-09-10T07:42:33.852Z,16.5
2017-09-10T07:43:34.474Z,16.53
2017-09-10T07:44:34.164Z,16.56
2017-09-10T07:45:34.473Z,16.57
2017-09-10T07:46:33.858Z,16.69
2017-09-10T07:47:34.168Z,16.71
2017-09-10T07:48:34.486Z,16.71
2017-09-10T07:49:34.479Z,16.74
2017-09-10T07:50:34.167Z,16.64
2017-09-10T07:51:34.174Z,16.54
2017-09-10T07:52:34.173Z,16.49
2017-09-10T07:53:34.485Z,16.43
2017-09-10T07:54:34.481Z,16.41
2017-09-10T07:55:34.482Z,16.39
2017-09-10T07:56:34.534Z,16.32
2017-09-10T07:57:34.176Z,16.41
2017-09-10T07:58:34.515Z,16.38
2017-09-10T07:59:34.180Z,16.33
2017-09-10T08:00:34.178Z,16.46
2017-09-10T08:01:34.182Z,16.47
2017-09-10T08:02:34.486Z,16.54
2017-09-10T08:03:34.494Z,16.6
2017-09-10T08:04:34.180Z,16.64
2017-09-10T08:05:34.515Z,16.75
2017-09-10T08:06:34.197Z,16.86
2017-09-10T08:07:34.190Z,16.83
2017-09-10T08:08:34.187Z,16.96
2017-09-10T08:09:34.514Z,17.01
2017-09-10T08:10:34.189Z,17.02
2017-09-10T08:11:34.208Z,17.09
2017-09-10T08:12:34.202Z,17.09
2017-09-10T08:13:34.223Z,17.15
2017-09-10T08:14:34.209Z,17.24
2017-09-10T08:15:34.199Z,17.39
2017-09-10T08:16:34.569Z,17.38
2017-09-10T08:17:33.897Z,17.54
2017-09-10T08:18:34.203Z,17.63
2017-09-10T08:19:33.893Z,17.7
2017-09-10T08:20:34.206Z,17.71
2017-09-10T08:21:33.967Z,17.76
2017-09-10T08:22:34.520Z,17.74
2017-09-10T08:23:34.210Z,17.65
2017-09-10T08:24:34.538Z,17.59
2017-09-10T08:25:34.228Z,17.56
2017-09-10T08:26:34.228Z,17.49
2017-09-10T08:27:34.527Z,17.48
2017-09-10T08:28:34.233Z,17.54
2017-09-10T08:29:33.912Z,17.52
2017-09-10T08:30:34.528Z,17.41
2017-09-10T08:31:34.544Z,17.39
2017-09-10T08:32:34.234Z,17.44
2017-09-10T08:33:34.233Z,17.44
2017-09-10T08:34:34.543Z,17.34
2017-09-10T08:35:34.236Z,17.31
2017-09-10T08:36:34.238Z,17.12
2017-09-10T08:37:34.235Z,17.01
2017-09-10T08:38:34.545Z,17.01
2017-09-10T08:39:34.240Z,16.94
2017-09-10T08:40:34.560Z,16.99
2017-09-10T08:41:34.254Z,17.09
2017-09-10T08:42:34.246Z,17.14
2017-09-10T08:43:34.549Z,17.11
2017-09-10T08:44:34.246Z,17.14
2017-09-10T08:45:34.553Z,17.23
2017-09-10T08:46:34.255Z,17.31
2017-09-10T08:47:34.557Z,17.3
2017-09-10T08:48:34.579Z,17.31
2017-09-10T08:49:34.577Z,17.23
2017-09-10T08:50:34.262Z,17.31
2017-09-10T08:51:34.261Z,17.31
2017-09-10T08:52:34.261Z,17.41
2017-09-10T08:53:34.582Z,17.36
2017-09-10T08:54:33.950Z,17.41
2017-09-10T08:55:34.282Z,17.45
2017-09-10T08:56:34.583Z,17.56
2017-09-10T08:57:33.959Z,17.56
2017-09-10T08:58:34.274Z,17.64
2017-09-10T08:59:34.278Z,17.64
2017-09-10T09:00:34.269Z,17.68
2017-09-10T09:01:34.585Z,17.72
2017-09-10T09:02:34.305Z,17.71
2017-09-10T09:03:34.284Z,17.79
2017-09-10T09:04:34.287Z,17.79
2017-09-10T09:05:34.590Z,18.01
2017-09-10T09:06:34.283Z,18
2017-09-10T09:07:33.972Z,17.9
2017-09-10T09:08:34.600Z,17.89
2017-09-10T09:09:34.596Z,17.74
2017-09-10T09:10:35.408Z,17.71
2017-09-10T09:11:34.291Z,17.74
2017-09-10T09:12:34.596Z,17.76
2017-09-10T09:13:34.329Z,17.85
2017-09-10T09:14:34.608Z,17.79
2017-09-10T09:15:34.608Z,17.8
2017-09-10T09:16:34.322Z,17.72
2017-09-10T09:17:34.613Z,17.68
2017-09-10T09:18:34.310Z,17.7
2017-09-10T09:19:34.616Z,17.74
2017-09-10T09:20:34.618Z,17.79
2017-09-10T09:21:34.310Z,17.92
2017-09-10T09:22:34.632Z,18.07
2017-09-10T09:23:34.312Z,18.05
2017-09-10T09:24:34.322Z,18.13
2017-09-10T09:25:34.357Z,18.22
2017-09-10T09:26:34.320Z,18.38
2017-09-10T09:27:34.333Z,18.43
2017-09-10T09:28:34.018Z,18.55
2017-09-10T09:29:34.332Z,18.66
2017-09-10T09:30:34.332Z,18.7
2017-09-10T09:31:34.335Z,18.81
2017-09-10T09:32:34.339Z,18.95
2017-09-10T09:33:34.650Z,18.99
2017-09-10T09:34:34.648Z,19.11
2017-09-10T09:35:34.349Z,19.15
2017-09-10T09:36:34.427Z,19.26
2017-09-10T09:37:34.063Z,19.27
2017-09-10T09:38:34.663Z,19.36
2017-09-10T09:39:34.357Z,19.3
2017-09-10T09:40:34.362Z,19.33
2017-09-10T09:41:34.678Z,19.39
2017-09-10T09:42:34.368Z,19.45
2017-09-10T09:43:34.071Z,19.47
2017-09-10T09:44:34.373Z,19.69
2017-09-10T09:45:34.693Z,19.51
2017-09-10T09:46:34.695Z,19.45
2017-09-10T09:47:34.695Z,19.76
2017-09-10T09:48:34.386Z,19.86
2017-09-10T09:49:34.392Z,19.85
2017-09-10T09:50:34.390Z,19.84
2017-09-10T09:51:34.700Z,19.92
2017-09-10T09:52:34.720Z,19.95
2017-09-10T09:53:34.707Z,19.95
2017-09-10T09:54:34.707Z,19.96
2017-09-10T09:55:34.410Z,19.94
2017-09-10T09:56:34.719Z,20.02
2017-09-10T09:57:34.416Z,20.25
2017-09-10T09:58:34.108Z,20.32
2017-09-10T09:59:34.111Z,20.56
2017-09-10T10:00:34.430Z,20.6
2017-09-10T10:01:34.446Z,20.5
2017-09-10T10:02:34.748Z,20.55
2017-09-10T10:03:34.449Z,20.66
2017-09-10T10:04:34.446Z,20.65
2017-09-10T10:05:34.445Z,20.7
2017-09-10T10:06:34.449Z,20.6
2017-09-10T10:07:34.149Z,20.58
2017-09-10T10:08:34.771Z,20.55
2017-09-10T10:09:34.789Z,20.48
2017-09-10T10:10:34.464Z,20.4
2017-09-10T10:11:34.471Z,20.09
2017-09-10T10:12:34.477Z,19.82
2017-09-10T10:13:34.795Z,19.59
2017-09-10T10:14:34.892Z,19.49
2017-09-10T10:15:34.479Z,19.4
2017-09-10T10:16:34.815Z,19.4
2017-09-10T10:17:34.825Z,19.45
2017-09-10T10:18:34.488Z,19.36
2017-09-10T10:19:34.490Z,19.27
2017-09-10T10:20:34.505Z,19.39
2017-09-10T10:21:34.703Z,19.31
2017-09-10T10:22:34.507Z,19.41
2017-09-10T10:23:34.522Z,19.37
2017-09-10T10:24:34.840Z,19.55
2017-09-10T10:25:34.820Z,19.73
2017-09-10T10:26:34.549Z,19.88
2017-09-10T10:27:34.524Z,20.06
2017-09-10T10:28:34.231Z,20.34
2017-09-10T10:29:34.529Z,20.48
2017-09-10T10:30:34.552Z,20.65
2017-09-10T10:31:34.621Z,20.69
2017-09-10T10:32:34.877Z,20.5
2017-09-10T10:33:34.867Z,20.62
2017-09-10T10:34:34.587Z,20.56
2017-09-10T10:35:34.858Z,20.6
2017-09-10T10:36:34.911Z,20.6
2017-09-10T10:37:34.603Z,20.74
2017-09-10T10:38:34.886Z,20.84
2017-09-10T10:39:34.258Z,20.77
2017-09-10T10:40:34.578Z,20.66
2017-09-10T10:41:34.888Z,20.52
2017-09-10T10:42:34.591Z,20.52
2017-09-10T10:43:34.906Z,20.5
2017-09-10T10:44:34.898Z,20.47
2017-09-10T10:45:34.275Z,20.55
2017-09-10T10:46:34.606Z,20.5
2017-09-10T10:47:34.593Z,20.36
2017-09-10T10:48:34.934Z,20.41
2017-09-10T10:49:34.929Z,20.39
2017-09-10T10:50:36.522Z,20.44
2017-09-10T10:51:34.926Z,20.28
2017-09-10T10:52:34.935Z,20.31
2017-09-10T10:53:34.926Z,20.04
2017-09-10T10:54:34.640Z,19.99
2017-09-10T10:55:34.626Z,19.95
2017-09-10T10:56:34.619Z,19.92
2017-09-10T10:57:34.968Z,19.92
2017-09-10T10:58:34.324Z,20.02
2017-09-10T10:59:34.965Z,20.06
2017-09-10T11:00:34.323Z,20.16
2017-09-10T11:01:34.655Z,20.16
2017-09-10T11:02:34.963Z,20.06
2017-09-10T11:03:34.959Z,20.03
2017-09-10T11:04:34.984Z,19.95
2017-09-10T11:05:34.652Z,19.94
2017-09-10T11:06:34.737Z,19.91
2017-09-10T11:07:34.662Z,19.84
2017-09-10T11:08:34.985Z,19.66
2017-09-10T11:09:34.666Z,19.56
2017-09-10T11:10:34.665Z,19.52
2017-09-10T11:11:35.054Z,19.47
2017-09-10T11:12:34.716Z,19.49
2017-09-10T11:13:34.993Z,19.62
2017-09-10T11:14:35.004Z,19.84
2017-09-10T11:15:35.014Z,19.81
2017-09-10T11:16:34.696Z,20.03
2017-09-10T11:17:34.383Z,20.18
2017-09-10T11:18:35.008Z,20.39
2017-09-10T11:19:34.692Z,20.5
2017-09-10T11:20:34.699Z,20.55
2017-09-10T11:21:35.025Z,20.43
2017-09-10T11:22:34.714Z,20.43
2017-09-10T11:23:35.029Z,20.55
2017-09-10T11:24:34.400Z,20.65
2017-09-10T11:25:35.043Z,20.72
2017-09-10T11:26:34.720Z,20.9
2017-09-10T11:27:34.727Z,21.18
2017-09-10T11:28:34.728Z,21.24
2017-09-10T11:29:34.729Z,21.32
2017-09-10T11:30:35.105Z,21.43
2017-09-10T11:31:35.168Z,21.45
2017-09-10T11:32:34.752Z,21.51
2017-09-10T11:33:34.437Z,21.5
2017-09-10T11:34:35.086Z,21.48
2017-09-10T11:35:34.751Z,21.51
2017-09-10T11:36:35.060Z,21.62
2017-09-10T11:37:35.112Z,21.52
2017-09-10T11:38:35.091Z,21.46
2017-09-10T11:39:35.089Z,21.42
2017-09-10T11:40:35.128Z,21.37
2017-09-10T11:41:34.789Z,21.25
2017-09-10T11:42:35.102Z,21.22
2017-09-10T11:43:35.120Z,21.14
2017-09-10T11:44:34.826Z,20.96
2017-09-10T11:45:35.112Z,20.9
2017-09-10T11:46:34.819Z,20.85
2017-09-10T11:47:34.823Z,20.85
2017-09-10T11:48:34.819Z,20.78
2017-09-10T11:49:34.496Z,20.66
2017-09-10T11:50:35.118Z,20.69
2017-09-10T11:51:35.140Z,20.63
2017-09-10T11:52:35.140Z,20.67
2017-09-10T11:53:35.140Z,20.6
2017-09-10T11:54:35.149Z,20.41
2017-09-10T11:55:34.825Z,20.34
2017-09-10T11:56:35.219Z,20.4
2017-09-10T11:57:35.150Z,20.55
2017-09-10T11:58:34.852Z,20.56
2017-09-10T11:59:34.841Z,20.55
2017-09-10T12:00:34.542Z,20.66
2017-09-10T12:01:35.168Z,20.65
2017-09-10T12:02:34.550Z,20.52
2017-09-10T12:03:34.867Z,20.52
2017-09-10T12:04:34.874Z,20.51
2017-09-10T12:05:34.572Z,20.55
2017-09-10T12:06:34.957Z,20.5
2017-09-10T12:07:35.190Z,20.5
2017-09-10T12:08:35.190Z,20.5
2017-09-10T12:09:35.195Z,20.62
2017-09-10T12:10:34.589Z,20.72
2017-09-10T12:11:35.208Z,20.7
2017-09-10T12:12:34.595Z,20.72
2017-09-10T12:13:35.224Z,20.65
2017-09-10T12:14:34.920Z,20.6
2017-09-10T12:15:35.463Z,20.56
2017-09-10T12:16:35.378Z,20.6
2017-09-10T12:17:35.501Z,20.67
2017-09-10T12:18:35.389Z,20.62
2017-09-10T12:19:35.124Z,20.51
2017-09-10T12:20:35.517Z,20.29
2017-09-10T12:21:35.228Z,20.39
2017-09-10T12:22:34.940Z,20.32
2017-09-10T12:23:35.225Z,20.29
2017-09-10T12:24:34.933Z,20.28
2017-09-10T12:25:34.648Z,20.26
2017-09-10T12:26:35.235Z,20.4
2017-09-10T12:27:34.938Z,20.58
2017-09-10T12:28:34.948Z,20.77
2017-09-10T12:29:34.643Z,20.85
2017-09-10T12:30:35.248Z,20.93
2017-09-10T12:31:34.647Z,21.09
2017-09-10T12:32:34.949Z,21.14
2017-09-10T12:33:35.260Z,21.09
2017-09-10T12:34:34.982Z,21.09
2017-09-10T12:35:35.263Z,21.25
2017-09-10T12:36:36.004Z,21.09
2017-09-10T12:37:34.962Z,21.05
2017-09-10T12:38:34.982Z,21.06
2017-09-10T12:39:35.278Z,21.03
2017-09-10T12:40:34.981Z,21
2017-09-10T12:41:34.679Z,21.07
2017-09-10T12:42:35.294Z,21.12
2017-09-10T12:43:35.292Z,21.21
2017-09-10T12:44:35.018Z,21.2
2017-09-10T12:45:35.306Z,21.17
2017-09-10T12:46:35.001Z,21.18
2017-09-10T12:47:35.006Z,21.24
2017-09-10T12:48:35.310Z,21.14
2017-09-10T12:49:35.319Z,21.09
2017-09-10T12:50:35.017Z,21.11
2017-09-10T12:51:35.364Z,21.11
2017-09-10T12:52:35.021Z,21.17
2017-09-10T12:53:34.742Z,21.27
2017-09-10T12:54:35.020Z,21.2
2017-09-10T12:55:35.328Z,21.03